sensor_id;sensor_type;location;lat;lon;timestamp;P1;durP1;ratioP1;P2;durP2;ratioP2
26086;SDS011;13851;43.434;28.338;2023-04-10T00:00:59;10.18;;;9.18;;
26086;SDS011;13851;43.434;28.338;2023-04-10T00:03:26;9.88;;;9.00;;
26086;SDS011;13851;43.434;28.338;2023-04-10T00:05:52;10.10;;;9.20;;
26086;SDS011;13851;43.434;28.338;2023-04-10T00:08:22;11.07;;;9.98;;
26086;SDS011;13851;43.434;28.338;2023-04-10T00:10:48;11.57;;;10.50;;
26086;SDS011;13851;43.434;28.338;2023-04-10T00:13:14;11.88;;;10.70;;
26086;SDS011;13851;43.434;28.338;2023-04-10T00:15:40;12.55;;;11.25;;
26086;SDS011;13851;43.434;28.338;2023-04-10T00:18:06;12.35;;;11.15;;
26086;SDS011;13851;43.434;28.338;2023-04-10T00:20:31;13.32;;;12.13;;
26086;SDS011;13851;43.434;28.338;2023-04-10T00:22:57;13.38;;;12.10;;
26086;SDS011;13851;43.434;28.338;2023-04-10T00:25:23;13.05;;;11.75;;
26086;SDS011;13851;43.434;28.338;2023-04-10T00:27:48;13.70;;;12.50;;
26086;SDS011;13851;43.434;28.338;2023-04-10T00:30:14;13.85;;;12.55;;
26086;SDS011;13851;43.434;28.338;2023-04-10T00:32:39;15.68;;;14.13;;
26086;SDS011;13851;43.434;28.338;2023-04-10T00:35:06;15.32;;;13.77;;
26086;SDS011;13851;43.434;28.338;2023-04-10T00:37:32;15.30;;;13.90;;
26086;SDS011;13851;43.434;28.338;2023-04-10T00:39:57;15.32;;;13.93;;
26086;SDS011;13851;43.434;28.338;2023-04-10T00:42:23;15.65;;;14.20;;
26086;SDS011;13851;43.434;28.338;2023-04-10T00:44:49;16.70;;;15.10;;
26086;SDS011;13851;43.434;28.338;2023-04-10T00:47:14;16.48;;;14.98;;
26086;SDS011;13851;43.434;28.338;2023-04-10T00:49:41;16.42;;;14.93;;
26086;SDS011;13851;43.434;28.338;2023-04-10T00:52:07;16.20;;;14.70;;
26086;SDS011;13851;43.434;28.338;2023-04-10T00:54:36;16.38;;;14.77;;
26086;SDS011;13851;43.434;28.338;2023-04-10T00:57:02;16.52;;;15.02;;
26086;SDS011;13851;43.434;28.338;2023-04-10T00:59:31;16.70;;;15.13;;
26086;SDS011;13851;43.434;28.338;2023-04-10T01:01:58;16.10;;;14.60;;
26086;SDS011;13851;43.434;28.338;2023-04-10T01:04:26;15.93;;;14.43;;
26086;SDS011;13851;43.434;28.338;2023-04-10T01:06:58;16.38;;;14.82;;
26086;SDS011;13851;43.434;28.338;2023-04-10T01:15:10;14.35;;;13.05;;
26086;SDS011;13851;43.434;28.338;2023-04-10T01:17:50;13.82;;;12.52;;
26086;SDS011;13851;43.434;28.338;2023-04-10T01:22:57;13.27;;;11.93;;
26086;SDS011;13851;43.434;28.338;2023-04-10T01:25:50;12.13;;;11.00;;
26086;SDS011;13851;43.434;28.338;2023-04-10T01:31:05;12.52;;;11.43;;
26086;SDS011;13851;43.434;28.338;2023-04-10T01:33:42;13.48;;;12.18;;
26086;SDS011;13851;43.434;28.338;2023-04-10T01:36:23;12.75;;;11.55;;
26086;SDS011;13851;43.434;28.338;2023-04-10T01:38:52;12.90;;;11.70;;
26086;SDS011;13851;43.434;28.338;2023-04-10T01:41:21;12.50;;;11.25;;
26086;SDS011;13851;43.434;28.338;2023-04-10T01:43:48;12.18;;;11.02;;
26086;SDS011;13851;43.434;28.338;2023-04-10T01:46:16;11.25;;;10.15;;
26086;SDS011;13851;43.434;28.338;2023-04-10T01:48:44;11.63;;;10.50;;
26086;SDS011;13851;43.434;28.338;2023-04-10T01:51:12;11.98;;;10.88;;
26086;SDS011;13851;43.434;28.338;2023-04-10T01:53:39;12.07;;;10.88;;
26086;SDS011;13851;43.434;28.338;2023-04-10T01:56:07;11.70;;;10.50;;
26086;SDS011;13851;43.434;28.338;2023-04-10T01:58:33;12.05;;;10.93;;
26086;SDS011;13851;43.434;28.338;2023-04-10T02:00:59;12.85;;;11.57;;
26086;SDS011;13851;43.434;28.338;2023-04-10T02:03:25;11.80;;;10.73;;
26086;SDS011;13851;43.434;28.338;2023-04-10T02:08:19;11.48;;;10.38;;
26086;SDS011;13851;43.434;28.338;2023-04-10T02:11:11;15.90;;;14.25;;
26086;SDS011;13851;43.434;28.338;2023-04-10T02:13:41;13.88;;;12.57;;
26086;SDS011;13851;43.434;28.338;2023-04-10T02:16:07;11.55;;;10.35;;
26086;SDS011;13851;43.434;28.338;2023-04-10T02:18:34;11.65;;;10.55;;
26086;SDS011;13851;43.434;28.338;2023-04-10T02:21:01;11.55;;;10.35;;
26086;SDS011;13851;43.434;28.338;2023-04-10T02:23:29;11.27;;;9.88;;
26086;SDS011;13851;43.434;28.338;2023-04-10T02:25:55;10.95;;;9.88;;
26086;SDS011;13851;43.434;28.338;2023-04-10T02:28:23;11.45;;;10.27;;
26086;SDS011;13851;43.434;28.338;2023-04-10T02:30:50;11.82;;;10.65;;
26086;SDS011;13851;43.434;28.338;2023-04-10T02:33:15;11.25;;;10.15;;
26086;SDS011;13851;43.434;28.338;2023-04-10T02:35:41;10.90;;;9.70;;
26086;SDS011;13851;43.434;28.338;2023-04-10T02:38:06;11.05;;;9.90;;
26086;SDS011;13851;43.434;28.338;2023-04-10T02:40:35;11.07;;;9.98;;
26086;SDS011;13851;43.434;28.338;2023-04-10T02:43:01;11.23;;;10.02;;
26086;SDS011;13851;43.434;28.338;2023-04-10T02:45:26;11.75;;;10.57;;
26086;SDS011;13851;43.434;28.338;2023-04-10T02:47:52;11.10;;;10.00;;
26086;SDS011;13851;43.434;28.338;2023-04-10T02:50:17;10.90;;;9.70;;
26086;SDS011;13851;43.434;28.338;2023-04-10T02:52:43;10.63;;;9.63;;
26086;SDS011;13851;43.434;28.338;2023-04-10T02:55:09;12.60;;;11.40;;
26086;SDS011;13851;43.434;28.338;2023-04-10T02:57:34;56.95;;;50.90;;
26086;SDS011;13851;43.434;28.338;2023-04-10T03:00:00;25.70;;;22.92;;
26086;SDS011;13851;43.434;28.338;2023-04-10T03:02:26;165.18;;;145.95;;
26086;SDS011;13851;43.434;28.338;2023-04-10T03:04:52;74.80;;;60.85;;
26086;SDS011;13851;43.434;28.338;2023-04-10T03:07:17;87.00;;;75.72;;
26086;SDS011;13851;43.434;28.338;2023-04-10T03:09:43;14.52;;;13.02;;
26086;SDS011;13851;43.434;28.338;2023-04-10T03:12:08;14.80;;;13.30;;
26086;SDS011;13851;43.434;28.338;2023-04-10T03:14:34;18.92;;;17.08;;
26086;SDS011;13851;43.434;28.338;2023-04-10T03:16:59;47.75;;;40.15;;
26086;SDS011;13851;43.434;28.338;2023-04-10T03:19:25;37.70;;;31.80;;
26086;SDS011;13851;43.434;28.338;2023-04-10T03:21:50;19.60;;;16.90;;
26086;SDS011;13851;43.434;28.338;2023-04-10T03:24:16;18.40;;;16.50;;
26086;SDS011;13851;43.434;28.338;2023-04-10T03:26:41;24.63;;;21.95;;
26086;SDS011;13851;43.434;28.338;2023-04-10T03:29:07;17.52;;;13.63;;
26086;SDS011;13851;43.434;28.338;2023-04-10T03:31:32;17.23;;;15.05;;
26086;SDS011;13851;43.434;28.338;2023-04-10T03:33:58;35.30;;;16.98;;
26086;SDS011;13851;43.434;28.338;2023-04-10T03:36:23;13.02;;;11.15;;
26086;SDS011;13851;43.434;28.338;2023-04-10T03:38:49;14.23;;;11.57;;
26086;SDS011;13851;43.434;28.338;2023-04-10T03:41:16;13.50;;;12.10;;
26086;SDS011;13851;43.434;28.338;2023-04-10T03:43:42;14.32;;;12.93;;
26086;SDS011;13851;43.434;28.338;2023-04-10T03:46:07;15.60;;;12.68;;
26086;SDS011;13851;43.434;28.338;2023-04-10T03:48:33;13.40;;;12.07;;
26086;SDS011;13851;43.434;28.338;2023-04-10T03:50:58;16.30;;;13.65;;
26086;SDS011;13851;43.434;28.338;2023-04-10T03:53:24;15.02;;;13.40;;
26086;SDS011;13851;43.434;28.338;2023-04-10T03:55:49;16.88;;;14.68;;
26086;SDS011;13851;43.434;28.338;2023-04-10T03:58:17;17.38;;;15.65;;
26086;SDS011;13851;43.434;28.338;2023-04-10T04:00:43;15.43;;;13.82;;
26086;SDS011;13851;43.434;28.338;2023-04-10T04:03:09;17.95;;;14.38;;
26086;SDS011;13851;43.434;28.338;2023-04-10T04:05:35;17.35;;;15.27;;
26086;SDS011;13851;43.434;28.338;2023-04-10T04:08:00;19.88;;;15.98;;
26086;SDS011;13851;43.434;28.338;2023-04-10T04:10:27;23.08;;;15.57;;
26086;SDS011;13851;43.434;28.338;2023-04-10T04:12:52;17.02;;;15.32;;
26086;SDS011;13851;43.434;28.338;2023-04-10T04:15:18;17.50;;;15.60;;
26086;SDS011;13851;43.434;28.338;2023-04-10T04:17:47;20.25;;;16.45;;
26086;SDS011;13851;43.434;28.338;2023-04-10T04:20:13;17.75;;;15.93;;
26086;SDS011;13851;43.434;28.338;2023-04-10T04:22:39;24.80;;;16.20;;
26086;SDS011;13851;43.434;28.338;2023-04-10T04:25:06;18.42;;;16.40;;
26086;SDS011;13851;43.434;28.338;2023-04-10T04:27:36;31.23;;;19.30;;
26086;SDS011;13851;43.434;28.338;2023-04-10T04:30:04;20.25;;;17.98;;
26086;SDS011;13851;43.434;28.338;2023-04-10T04:32:30;21.15;;;18.95;;
26086;SDS011;13851;43.434;28.338;2023-04-10T04:34:56;20.52;;;18.20;;
26086;SDS011;13851;43.434;28.338;2023-04-10T04:37:22;24.13;;;18.30;;
26086;SDS011;13851;43.434;28.338;2023-04-10T04:39:47;23.60;;;19.08;;
26086;SDS011;13851;43.434;28.338;2023-04-10T04:42:13;23.38;;;18.58;;
26086;SDS011;13851;43.434;28.338;2023-04-10T04:44:38;40.30;;;20.00;;
26086;SDS011;13851;43.434;28.338;2023-04-10T04:47:04;22.95;;;19.90;;
26086;SDS011;13851;43.434;28.338;2023-04-10T04:49:29;24.30;;;19.35;;
26086;SDS011;13851;43.434;28.338;2023-04-10T04:51:55;20.90;;;18.02;;
26086;SDS011;13851;43.434;28.338;2023-04-10T04:54:21;22.20;;;19.80;;
26086;SDS011;13851;43.434;28.338;2023-04-10T04:56:46;252.73;;;214.07;;
26086;SDS011;13851;43.434;28.338;2023-04-10T04:59:12;124.75;;;101.78;;
26086;SDS011;13851;43.434;28.338;2023-04-10T05:01:37;158.23;;;124.30;;
26086;SDS011;13851;43.434;28.338;2023-04-10T05:04:03;26.48;;;22.15;;
26086;SDS011;13851;43.434;28.338;2023-04-10T05:06:28;39.20;;;30.73;;
26086;SDS011;13851;43.434;28.338;2023-04-10T05:08:55;157.23;;;140.10;;
26086;SDS011;13851;43.434;28.338;2023-04-10T05:11:21;156.75;;;132.15;;
26086;SDS011;13851;43.434;28.338;2023-04-10T05:13:47;172.43;;;150.77;;
26086;SDS011;13851;43.434;28.338;2023-04-10T05:16:12;55.50;;;46.35;;
26086;SDS011;13851;43.434;28.338;2023-04-10T05:18:38;32.05;;;26.83;;
26086;SDS011;13851;43.434;28.338;2023-04-10T05:21:03;42.95;;;30.77;;
26086;SDS011;13851;43.434;28.338;2023-04-10T05:23:29;30.25;;;25.00;;
26086;SDS011;13851;43.434;28.338;2023-04-10T05:25:55;62.13;;;42.33;;
26086;SDS011;13851;43.434;28.338;2023-04-10T05:28:20;36.05;;;25.88;;
26086;SDS011;13851;43.434;28.338;2023-04-10T05:30:47;32.33;;;24.52;;
26086;SDS011;13851;43.434;28.338;2023-04-10T05:33:12;28.83;;;22.17;;
26086;SDS011;13851;43.434;28.338;2023-04-10T05:35:38;32.85;;;26.02;;
26086;SDS011;13851;43.434;28.338;2023-04-10T05:38:03;30.45;;;25.90;;
26086;SDS011;13851;43.434;28.338;2023-04-10T05:40:29;57.97;;;41.30;;
26086;SDS011;13851;43.434;28.338;2023-04-10T05:42:58;108.28;;;70.53;;
26086;SDS011;13851;43.434;28.338;2023-04-10T05:45:23;74.32;;;52.22;;
26086;SDS011;13851;43.434;28.338;2023-04-10T05:47:49;56.85;;;46.95;;
26086;SDS011;13851;43.434;28.338;2023-04-10T05:50:15;59.22;;;50.15;;
26086;SDS011;13851;43.434;28.338;2023-04-10T05:52:43;73.50;;;62.13;;
26086;SDS011;13851;43.434;28.338;2023-04-10T05:55:10;94.50;;;84.57;;
26086;SDS011;13851;43.434;28.338;2023-04-10T05:57:36;117.03;;;104.30;;
26086;SDS011;13851;43.434;28.338;2023-04-10T06:00:02;122.07;;;109.35;;
26086;SDS011;13851;43.434;28.338;2023-04-10T06:02:28;103.82;;;92.40;;
26086;SDS011;13851;43.434;28.338;2023-04-10T06:04:54;110.68;;;96.78;;
26086;SDS011;13851;43.434;28.338;2023-04-10T06:07:19;94.75;;;77.80;;
26086;SDS011;13851;43.434;28.338;2023-04-10T06:09:45;56.22;;;45.90;;
26086;SDS011;13851;43.434;28.338;2023-04-10T06:12:11;58.75;;;42.40;;
26086;SDS011;13851;43.434;28.338;2023-04-10T06:14:36;47.78;;;35.88;;
26086;SDS011;13851;43.434;28.338;2023-04-10T06:17:01;44.20;;;33.90;;
26086;SDS011;13851;43.434;28.338;2023-04-10T06:19:29;48.80;;;36.72;;
26086;SDS011;13851;43.434;28.338;2023-04-10T06:21:55;49.83;;;34.90;;
26086;SDS011;13851;43.434;28.338;2023-04-10T06:24:20;46.15;;;33.60;;
26086;SDS011;13851;43.434;28.338;2023-04-10T06:26:46;51.13;;;34.30;;
26086;SDS011;13851;43.434;28.338;2023-04-10T06:29:11;53.58;;;36.58;;
26086;SDS011;13851;43.434;28.338;2023-04-10T06:31:37;51.08;;;37.67;;
26086;SDS011;13851;43.434;28.338;2023-04-10T06:34:02;40.28;;;30.40;;
26086;SDS011;13851;43.434;28.338;2023-04-10T06:36:28;32.70;;;26.75;;
26086;SDS011;13851;43.434;28.338;2023-04-10T06:38:54;35.30;;;26.60;;
26086;SDS011;13851;43.434;28.338;2023-04-10T06:41:19;32.60;;;25.98;;
26086;SDS011;13851;43.434;28.338;2023-04-10T06:43:45;32.35;;;26.55;;
26086;SDS011;13851;43.434;28.338;2023-04-10T06:46:11;28.85;;;22.50;;
26086;SDS011;13851;43.434;28.338;2023-04-10T06:48:36;37.55;;;21.00;;
26086;SDS011;13851;43.434;28.338;2023-04-10T06:51:02;21.35;;;18.77;;
26086;SDS011;13851;43.434;28.338;2023-04-10T06:53:28;33.20;;;21.15;;
26086;SDS011;13851;43.434;28.338;2023-04-10T06:55:53;23.73;;;20.58;;
26086;SDS011;13851;43.434;28.338;2023-04-10T06:58:19;27.45;;;22.77;;
26086;SDS011;13851;43.434;28.338;2023-04-10T07:00:45;33.28;;;25.83;;
26086;SDS011;13851;43.434;28.338;2023-04-10T07:03:11;36.40;;;25.27;;
26086;SDS011;13851;43.434;28.338;2023-04-10T07:05:36;33.17;;;24.23;;
26086;SDS011;13851;43.434;28.338;2023-04-10T07:08:02;35.63;;;24.85;;
26086;SDS011;13851;43.434;28.338;2023-04-10T07:10:27;23.48;;;20.95;;
26086;SDS011;13851;43.434;28.338;2023-04-10T07:12:54;24.58;;;19.40;;
26086;SDS011;13851;43.434;28.338;2023-04-10T07:15:21;21.65;;;19.08;;
26086;SDS011;13851;43.434;28.338;2023-04-10T07:17:47;25.58;;;19.90;;
26086;SDS011;13851;43.434;28.338;2023-04-10T07:20:12;29.52;;;22.02;;
26086;SDS011;13851;43.434;28.338;2023-04-10T07:22:38;30.20;;;25.52;;
26086;SDS011;13851;43.434;28.338;2023-04-10T07:25:03;41.72;;;26.92;;
26086;SDS011;13851;43.434;28.338;2023-04-10T07:27:29;25.10;;;20.25;;
26086;SDS011;13851;43.434;28.338;2023-04-10T07:29:54;29.45;;;20.35;;
26086;SDS011;13851;43.434;28.338;2023-04-10T07:32:21;21.20;;;16.30;;
26086;SDS011;13851;43.434;28.338;2023-04-10T07:34:47;24.05;;;16.65;;
26086;SDS011;13851;43.434;28.338;2023-04-10T07:37:15;17.63;;;15.18;;
26086;SDS011;13851;43.434;28.338;2023-04-10T07:39:42;17.35;;;15.50;;
26086;SDS011;13851;43.434;28.338;2023-04-10T07:42:08;21.48;;;17.08;;
26086;SDS011;13851;43.434;28.338;2023-04-10T07:44:35;19.83;;;15.05;;
26086;SDS011;13851;43.434;28.338;2023-04-10T07:47:01;18.83;;;15.82;;
26086;SDS011;13851;43.434;28.338;2023-04-10T07:49:27;18.85;;;14.57;;
26086;SDS011;13851;43.434;28.338;2023-04-10T07:51:53;18.65;;;14.55;;
26086;SDS011;13851;43.434;28.338;2023-04-10T07:54:19;20.30;;;13.60;;
26086;SDS011;13851;43.434;28.338;2023-04-10T07:56:44;17.55;;;13.45;;
26086;SDS011;13851;43.434;28.338;2023-04-10T07:59:10;13.65;;;12.10;;
26086;SDS011;13851;43.434;28.338;2023-04-10T08:01:36;16.05;;;13.45;;
26086;SDS011;13851;43.434;28.338;2023-04-10T08:04:01;14.20;;;12.70;;
26086;SDS011;13851;43.434;28.338;2023-04-10T08:06:27;17.95;;;13.48;;
26086;SDS011;13851;43.434;28.338;2023-04-10T08:08:52;17.25;;;11.77;;
26086;SDS011;13851;43.434;28.338;2023-04-10T08:11:22;17.98;;;11.88;;
26086;SDS011;13851;43.434;28.338;2023-04-10T08:13:49;12.43;;;10.97;;
26086;SDS011;13851;43.434;28.338;2023-04-10T08:16:17;12.88;;;11.43;;
26086;SDS011;13851;43.434;28.338;2023-04-10T08:18:43;14.32;;;12.38;;
26086;SDS011;13851;43.434;28.338;2023-04-10T08:21:08;14.85;;;13.35;;
26086;SDS011;13851;43.434;28.338;2023-04-10T08:23:34;12.43;;;11.13;;
26086;SDS011;13851;43.434;28.338;2023-04-10T08:25:59;14.57;;;12.10;;
26086;SDS011;13851;43.434;28.338;2023-04-10T08:28:25;15.75;;;12.27;;
26086;SDS011;13851;43.434;28.338;2023-04-10T08:30:53;19.67;;;15.00;;
26086;SDS011;13851;43.434;28.338;2023-04-10T08:33:19;17.92;;;14.85;;
26086;SDS011;13851;43.434;28.338;2023-04-10T08:35:47;15.52;;;12.13;;
26086;SDS011;13851;43.434;28.338;2023-04-10T08:38:13;13.57;;;12.13;;
26086;SDS011;13851;43.434;28.338;2023-04-10T08:40:38;13.10;;;10.95;;
26086;SDS011;13851;43.434;28.338;2023-04-10T08:43:04;14.93;;;11.75;;
26086;SDS011;13851;43.434;28.338;2023-04-10T08:45:30;13.82;;;10.60;;
26086;SDS011;13851;43.434;28.338;2023-04-10T08:47:56;16.80;;;11.35;;
26086;SDS011;13851;43.434;28.338;2023-04-10T08:50:26;16.88;;;11.13;;
26086;SDS011;13851;43.434;28.338;2023-04-10T08:52:55;12.43;;;10.45;;
26086;SDS011;13851;43.434;28.338;2023-04-10T08:55:24;18.17;;;12.75;;
26086;SDS011;13851;43.434;28.338;2023-04-10T08:57:50;11.52;;;8.98;;
26086;SDS011;13851;43.434;28.338;2023-04-10T09:00:16;13.82;;;8.93;;
26086;SDS011;13851;43.434;28.338;2023-04-10T09:02:42;12.40;;;8.85;;
26086;SDS011;13851;43.434;28.338;2023-04-10T09:05:09;14.18;;;8.98;;
26086;SDS011;13851;43.434;28.338;2023-04-10T09:07:37;10.57;;;8.48;;
26086;SDS011;13851;43.434;28.338;2023-04-10T09:10:02;12.65;;;8.02;;
26086;SDS011;13851;43.434;28.338;2023-04-10T09:12:28;8.98;;;7.07;;
26086;SDS011;13851;43.434;28.338;2023-04-10T09:14:55;10.38;;;7.18;;
26086;SDS011;13851;43.434;28.338;2023-04-10T09:17:21;8.38;;;7.60;;
26086;SDS011;13851;43.434;28.338;2023-04-10T09:19:51;10.30;;;8.60;;
26086;SDS011;13851;43.434;28.338;2023-04-10T09:22:31;12.98;;;8.25;;
26086;SDS011;13851;43.434;28.338;2023-04-10T09:24:59;14.65;;;8.18;;
26086;SDS011;13851;43.434;28.338;2023-04-10T09:27:32;14.55;;;8.75;;
26086;SDS011;13851;43.434;28.338;2023-04-10T09:30:04;18.30;;;8.95;;
26086;SDS011;13851;43.434;28.338;2023-04-10T09:35:06;12.00;;;9.00;;
26086;SDS011;13851;43.434;28.338;2023-04-10T09:37:33;10.88;;;9.18;;
26086;SDS011;13851;43.434;28.338;2023-04-10T09:39:59;15.50;;;9.38;;
26086;SDS011;13851;43.434;28.338;2023-04-10T09:42:32;11.15;;;8.73;;
26086;SDS011;13851;43.434;28.338;2023-04-10T09:45:01;13.45;;;8.93;;
26086;SDS011;13851;43.434;28.338;2023-04-10T09:47:30;8.30;;;7.38;;
26086;SDS011;13851;43.434;28.338;2023-04-10T09:49:57;15.57;;;7.28;;
26086;SDS011;13851;43.434;28.338;2023-04-10T09:52:32;10.20;;;6.50;;
26086;SDS011;13851;43.434;28.338;2023-04-10T09:55:02;8.45;;;6.78;;
26086;SDS011;13851;43.434;28.338;2023-04-10T09:57:31;8.23;;;6.75;;
26086;SDS011;13851;43.434;28.338;2023-04-10T09:59:59;10.48;;;6.45;;
26086;SDS011;13851;43.434;28.338;2023-04-10T10:02:29;11.25;;;7.53;;
26086;SDS011;13851;43.434;28.338;2023-04-10T10:04:56;8.02;;;7.15;;
26086;SDS011;13851;43.434;28.338;2023-04-10T10:07:25;7.85;;;6.78;;
26086;SDS011;13851;43.434;28.338;2023-04-10T10:09:52;12.02;;;7.40;;
26086;SDS011;13851;43.434;28.338;2023-04-10T10:12:23;9.00;;;6.18;;
26086;SDS011;13851;43.434;28.338;2023-04-10T10:15:00;7.47;;;6.10;;
26086;SDS011;13851;43.434;28.338;2023-04-10T10:17:33;6.90;;;5.90;;
26086;SDS011;13851;43.434;28.338;2023-04-10T10:20:04;14.40;;;6.47;;
26086;SDS011;13851;43.434;28.338;2023-04-10T10:22:35;8.60;;;5.70;;
26086;SDS011;13851;43.434;28.338;2023-04-10T10:25:02;9.85;;;5.15;;
26086;SDS011;13851;43.434;28.338;2023-04-10T10:27:31;6.43;;;5.13;;
26086;SDS011;13851;43.434;28.338;2023-04-10T10:30:03;8.98;;;6.20;;
26086;SDS011;13851;43.434;28.338;2023-04-10T10:32:33;12.10;;;5.78;;
26086;SDS011;13851;43.434;28.338;2023-04-10T10:35:01;11.48;;;6.25;;
26086;SDS011;13851;43.434;28.338;2023-04-10T10:37:28;11.70;;;5.15;;
26086;SDS011;13851;43.434;28.338;2023-04-10T10:45:41;6.53;;;5.25;;
26086;SDS011;13851;43.434;28.338;2023-04-10T10:48:11;10.95;;;5.60;;
26086;SDS011;13851;43.434;28.338;2023-04-10T10:50:54;5.25;;;4.72;;
26086;SDS011;13851;43.434;28.338;2023-04-10T10:53:41;6.70;;;5.47;;
26086;SDS011;13851;43.434;28.338;2023-04-10T10:58:46;10.35;;;6.15;;
26086;SDS011;13851;43.434;28.338;2023-04-10T11:01:12;9.20;;;6.07;;
26086;SDS011;13851;43.434;28.338;2023-04-10T11:03:38;9.52;;;6.30;;
26086;SDS011;13851;43.434;28.338;2023-04-10T11:06:05;10.68;;;6.50;;
26086;SDS011;13851;43.434;28.338;2023-04-10T11:11:10;6.88;;;4.88;;
26086;SDS011;13851;43.434;28.338;2023-04-10T11:16:45;14.80;;;5.80;;
26086;SDS011;13851;43.434;28.338;2023-04-10T11:19:11;9.20;;;5.45;;
26086;SDS011;13851;43.434;28.338;2023-04-10T11:21:58;8.15;;;5.35;;
26086;SDS011;13851;43.434;28.338;2023-04-10T11:24:26;8.32;;;5.55;;
26086;SDS011;13851;43.434;28.338;2023-04-10T11:26:52;7.72;;;5.63;;
26086;SDS011;13851;43.434;28.338;2023-04-10T11:31:56;8.98;;;5.82;;
26086;SDS011;13851;43.434;28.338;2023-04-10T11:34:31;6.25;;;4.47;;
26086;SDS011;13851;43.434;28.338;2023-04-10T11:36:58;7.05;;;5.00;;
26086;SDS011;13851;43.434;28.338;2023-04-10T11:39:28;9.23;;;4.35;;
26086;SDS011;13851;43.434;28.338;2023-04-10T11:41:55;6.47;;;4.60;;
26086;SDS011;13851;43.434;28.338;2023-04-10T11:46:49;6.00;;;4.80;;
26086;SDS011;13851;43.434;28.338;2023-04-10T11:49:23;6.63;;;4.60;;
26086;SDS011;13851;43.434;28.338;2023-04-10T11:51:51;8.93;;;4.30;;
26086;SDS011;13851;43.434;28.338;2023-04-10T11:56:44;8.57;;;4.55;;
26086;SDS011;13851;43.434;28.338;2023-04-10T11:59:21;5.65;;;4.22;;
26086;SDS011;13851;43.434;28.338;2023-04-10T12:01:46;6.55;;;4.80;;
26086;SDS011;13851;43.434;28.338;2023-04-10T12:06:45;17.27;;;6.55;;
26086;SDS011;13851;43.434;28.338;2023-04-10T12:09:12;6.87;;;4.30;;
26086;SDS011;13851;43.434;28.338;2023-04-10T12:11:47;6.38;;;4.45;;
26086;SDS011;13851;43.434;28.338;2023-04-10T12:14:14;5.55;;;4.30;;
26086;SDS011;13851;43.434;28.338;2023-04-10T12:16:40;4.20;;;3.80;;
26086;SDS011;13851;43.434;28.338;2023-04-10T12:19:06;8.30;;;6.30;;
26086;SDS011;13851;43.434;28.338;2023-04-10T12:21:34;8.85;;;4.30;;
26086;SDS011;13851;43.434;28.338;2023-04-10T12:24:00;4.57;;;4.18;;
26086;SDS011;13851;43.434;28.338;2023-04-10T12:26:25;6.20;;;4.45;;
26086;SDS011;13851;43.434;28.338;2023-04-10T12:28:52;4.63;;;4.22;;
26086;SDS011;13851;43.434;28.338;2023-04-10T12:31:28;6.25;;;3.58;;
26086;SDS011;13851;43.434;28.338;2023-04-10T12:33:55;6.80;;;4.30;;
26086;SDS011;13851;43.434;28.338;2023-04-10T12:36:25;6.40;;;4.95;;
26086;SDS011;13851;43.434;28.338;2023-04-10T12:38:54;8.32;;;4.45;;
26086;SDS011;13851;43.434;28.338;2023-04-10T12:41:21;4.07;;;3.67;;
26086;SDS011;13851;43.434;28.338;2023-04-10T12:43:49;4.45;;;3.70;;
26086;SDS011;13851;43.434;28.338;2023-04-10T12:46:23;4.53;;;3.33;;
26086;SDS011;13851;43.434;28.338;2023-04-10T12:48:51;5.10;;;3.85;;
26086;SDS011;13851;43.434;28.338;2023-04-10T12:51:16;4.90;;;4.07;;
26086;SDS011;13851;43.434;28.338;2023-04-10T12:53:44;8.90;;;4.40;;
26086;SDS011;13851;43.434;28.338;2023-04-10T12:56:11;5.22;;;4.60;;
26086;SDS011;13851;43.434;28.338;2023-04-10T12:58:37;5.28;;;4.28;;
26086;SDS011;13851;43.434;28.338;2023-04-10T13:01:04;7.97;;;4.60;;
26086;SDS011;13851;43.434;28.338;2023-04-10T13:03:37;5.63;;;4.03;;
26086;SDS011;13851;43.434;28.338;2023-04-10T13:06:06;5.53;;;4.28;;
26086;SDS011;13851;43.434;28.338;2023-04-10T13:08:32;7.90;;;4.43;;
26086;SDS011;13851;43.434;28.338;2023-04-10T13:10:58;8.70;;;4.93;;
26086;SDS011;13851;43.434;28.338;2023-04-10T13:13:32;5.95;;;5.40;;
26086;SDS011;13851;43.434;28.338;2023-04-10T13:15:58;7.93;;;4.80;;
26086;SDS011;13851;43.434;28.338;2023-04-10T13:18:24;5.78;;;4.88;;
26086;SDS011;13851;43.434;28.338;2023-04-10T13:20:50;7.00;;;4.35;;
26086;SDS011;13851;43.434;28.338;2023-04-10T13:23:15;5.78;;;4.68;;
26086;SDS011;13851;43.434;28.338;2023-04-10T13:25:41;6.43;;;4.90;;
26086;SDS011;13851;43.434;28.338;2023-04-10T13:28:07;10.32;;;4.90;;
26086;SDS011;13851;43.434;28.338;2023-04-10T13:30:40;5.60;;;4.35;;
26086;SDS011;13851;43.434;28.338;2023-04-10T13:33:06;6.28;;;4.40;;
26086;SDS011;13851;43.434;28.338;2023-04-10T13:35:32;6.30;;;4.28;;
26086;SDS011;13851;43.434;28.338;2023-04-10T13:37:58;6.35;;;5.85;;
26086;SDS011;13851;43.434;28.338;2023-04-10T13:40:25;6.18;;;4.78;;
26086;SDS011;13851;43.434;28.338;2023-04-10T13:42:50;5.03;;;4.32;;
26086;SDS011;13851;43.434;28.338;2023-04-10T13:45:16;7.20;;;5.18;;
26086;SDS011;13851;43.434;28.338;2023-04-10T13:47:45;4.85;;;4.35;;
26086;SDS011;13851;43.434;28.338;2023-04-10T13:50:10;7.15;;;4.25;;
26086;SDS011;13851;43.434;28.338;2023-04-10T13:52:36;6.78;;;4.15;;
26086;SDS011;13851;43.434;28.338;2023-04-10T13:55:01;5.70;;;4.90;;
26086;SDS011;13851;43.434;28.338;2023-04-10T13:57:27;5.40;;;4.90;;
26086;SDS011;13851;43.434;28.338;2023-04-10T13:59:52;5.00;;;4.10;;
26086;SDS011;13851;43.434;28.338;2023-04-10T14:02:18;5.28;;;4.43;;
26086;SDS011;13851;43.434;28.338;2023-04-10T14:04:43;4.90;;;4.38;;
26086;SDS011;13851;43.434;28.338;2023-04-10T14:07:10;6.55;;;4.22;;
26086;SDS011;13851;43.434;28.338;2023-04-10T14:09:36;5.07;;;3.90;;
26086;SDS011;13851;43.434;28.338;2023-04-10T14:12:01;16.73;;;5.72;;
26086;SDS011;13851;43.434;28.338;2023-04-10T14:14:27;8.82;;;4.55;;
26086;SDS011;13851;43.434;28.338;2023-04-10T14:16:53;4.90;;;4.05;;
26086;SDS011;13851;43.434;28.338;2023-04-10T14:19:18;4.85;;;3.80;;
26086;SDS011;13851;43.434;28.338;2023-04-10T14:21:44;5.38;;;4.47;;
26086;SDS011;13851;43.434;28.338;2023-04-10T14:24:10;4.85;;;3.75;;
26086;SDS011;13851;43.434;28.338;2023-04-10T14:26:36;4.85;;;4.07;;
26086;SDS011;13851;43.434;28.338;2023-04-10T14:29:04;4.93;;;3.90;;
26086;SDS011;13851;43.434;28.338;2023-04-10T14:31:32;7.70;;;4.47;;
26086;SDS011;13851;43.434;28.338;2023-04-10T14:33:57;4.95;;;3.83;;
26086;SDS011;13851;43.434;28.338;2023-04-10T14:36:22;5.82;;;4.05;;
26086;SDS011;13851;43.434;28.338;2023-04-10T14:38:48;4.53;;;4.10;;
26086;SDS011;13851;43.434;28.338;2023-04-10T14:41:13;4.85;;;3.92;;
26086;SDS011;13851;43.434;28.338;2023-04-10T14:43:39;6.05;;;4.72;;
26086;SDS011;13851;43.434;28.338;2023-04-10T14:46:05;4.35;;;3.95;;
26086;SDS011;13851;43.434;28.338;2023-04-10T14:48:31;6.95;;;4.05;;
26086;SDS011;13851;43.434;28.338;2023-04-10T14:50:56;4.90;;;4.22;;
26086;SDS011;13851;43.434;28.338;2023-04-10T14:53:23;4.72;;;4.30;;
26086;SDS011;13851;43.434;28.338;2023-04-10T14:55:49;5.30;;;4.05;;